sensor_id;sensor_type;location;lat;lon;timestamp;pressure;altitude;pressure_sealevel;temperature;humidity
40994;BME280;26722;43.212;27.932;2023-05-23T00:02:02;55002.09;;;-146.72;62.02
40994;BME280;26722;43.212;27.932;2023-05-23T00:04:32;54995.75;;;-146.72;61.96
40994;BME280;26722;43.212;27.932;2023-05-23T00:06:57;54999.97;;;-146.72;62.19
40994;BME280;26722;43.212;27.932;2023-05-23T00:09:23;54989.41;;;-146.72;62.28
40994;BME280;26722;43.212;27.932;2023-05-23T00:11:48;54974.63;;;-146.72;62.21
40994;BME280;26722;43.212;27.932;2023-05-23T00:14:13;54997.88;;;-146.72;62.08
40994;BME280;26722;43.212;27.932;2023-05-23T00:16:42;54997.88;;;-146.72;62.34
40994;BME280;26722;43.212;27.932;2023-05-23T00:19:09;55002.09;;;-146.72;62.39
40994;BME280;26722;43.212;27.932;2023-05-23T00:21:34;54993.63;;;-146.72;62.33
40994;BME280;26722;43.212;27.932;2023-05-23T00:24:00;55006.31;;;-146.72;62.17
40994;BME280;26722;43.212;27.932;2023-05-23T00:26:26;55014.75;;;-146.72;62.12
40994;BME280;26722;43.212;27.932;2023-05-23T00:28:54;54995.75;;;-146.72;62.44
40994;BME280;26722;43.212;27.932;2023-05-23T00:31:20;55004.19;;;-146.72;62.36
40994;BME280;26722;43.212;27.932;2023-05-23T00:33:45;55010.53;;;-146.72;62.17
40994;BME280;26722;43.212;27.932;2023-05-23T00:36:11;54993.63;;;-146.72;62.36
40994;BME280;26722;43.212;27.932;2023-05-23T00:38:37;54987.31;;;-146.72;62.24
40994;BME280;26722;43.212;27.932;2023-05-23T00:41:03;54997.88;;;-146.72;62.03
40994;BME280;26722;43.212;27.932;2023-05-23T00:43:29;54997.88;;;-146.72;62.15
40994;BME280;26722;43.212;27.932;2023-05-23T00:45:54;54997.88;;;-146.72;61.95
40994;BME280;26722;43.212;27.932;2023-05-23T00:48:19;55018.97;;;-146.72;61.91
40994;BME280;26722;43.212;27.932;2023-05-23T00:50:45;55010.53;;;-146.72;62.04
40994;BME280;26722;43.212;27.932;2023-05-23T00:53:10;54993.63;;;-146.72;61.96
40994;BME280;26722;43.212;27.932;2023-05-23T00:55:37;55004.19;;;-146.72;61.75
40994;BME280;26722;43.212;27.932;2023-05-23T00:58:03;55006.31;;;-146.72;61.97
40994;BME280;26722;43.212;27.932;2023-05-23T01:00:29;55002.09;;;-146.72;61.96
40994;BME280;26722;43.212;27.932;2023-05-23T01:02:58;55004.19;;;-146.72;61.99
40994;BME280;26722;43.212;27.932;2023-05-23T01:05:23;55010.53;;;-146.72;61.86
40994;BME280;26722;43.212;27.932;2023-05-23T01:07:49;54989.41;;;-146.72;62.08
40994;BME280;26722;43.212;27.932;2023-05-23T01:10:15;55010.53;;;-146.72;62.14
40994;BME280;26722;43.212;27.932;2023-05-23T01:15:16;54993.63;;;-146.72;62.20
40994;BME280;26722;43.212;27.932;2023-05-23T01:20:33;55012.63;;;-146.72;62.47
40994;BME280;26722;43.212;27.932;2023-05-23T01:28:17;55014.75;;;-146.72;62.37
40994;BME280;26722;43.212;27.932;2023-05-23T01:30:44;54989.41;;;-146.72;62.41
40994;BME280;26722;43.212;27.932;2023-05-23T01:33:10;55006.31;;;-146.72;62.48
40994;BME280;26722;43.212;27.932;2023-05-23T01:35:37;55012.63;;;-146.72;62.49
40994;BME280;26722;43.212;27.932;2023-05-23T01:38:04;55002.09;;;-146.72;62.37
40994;BME280;26722;43.212;27.932;2023-05-23T01:40:29;55014.75;;;-146.72;62.26
40994;BME280;26722;43.212;27.932;2023-05-23T01:42:54;54999.97;;;-146.72;62.44
40994;BME280;26722;43.212;27.932;2023-05-23T01:45:21;54997.88;;;-146.72;62.58
40994;BME280;26722;43.212;27.932;2023-05-23T01:47:48;55025.31;;;-146.72;62.72
40994;BME280;26722;43.212;27.932;2023-05-23T01:50:15;55004.19;;;-146.72;62.75
40994;BME280;26722;43.212;27.932;2023-05-23T01:52:40;55023.19;;;-146.72;62.90
40994;BME280;26722;43.212;27.932;2023-05-23T01:55:06;55018.97;;;-146.72;63.01
40994;BME280;26722;43.212;27.932;2023-05-23T01:57:34;54993.63;;;-146.72;63.19
40994;BME280;26722;43.212;27.932;2023-05-23T01:59:59;55012.63;;;-146.72;63.02
40994;BME280;26722;43.212;27.932;2023-05-23T02:02:25;54997.88;;;-146.72;63.24
40994;BME280;26722;43.212;27.932;2023-05-23T02:04:50;55010.53;;;-146.72;63.27
40994;BME280;26722;43.212;27.932;2023-05-23T02:07:15;55014.75;;;-146.72;63.13
40994;BME280;26722;43.212;27.932;2023-05-23T02:09:41;55010.53;;;-146.72;62.82
40994;BME280;26722;43.212;27.932;2023-05-23T02:12:06;55006.31;;;-146.72;62.90
40994;BME280;26722;43.212;27.932;2023-05-23T02:14:32;55023.19;;;-146.72;63.01
40994;BME280;26722;43.212;27.932;2023-05-23T02:16:57;55010.53;;;-146.72;63.01
40994;BME280;26722;43.212;27.932;2023-05-23T02:19:22;55010.53;;;-146.72;62.94
40994;BME280;26722;43.212;27.932;2023-05-23T02:21:47;55002.09;;;-146.72;63.11
40994;BME280;26722;43.212;27.932;2023-05-23T02:24:13;55014.75;;;-146.72;63.27
40994;BME280;26722;43.212;27.932;2023-05-23T02:26:38;55006.31;;;-146.72;63.21
40994;BME280;26722;43.212;27.932;2023-05-23T02:29:03;55014.75;;;-146.72;63.44
40994;BME280;26722;43.212;27.932;2023-05-23T02:31:29;55006.31;;;-146.72;63.52
40994;BME280;26722;43.212;27.932;2023-05-23T02:33:54;55016.88;;;-146.72;63.59
40994;BME280;26722;43.212;27.932;2023-05-23T02:36:20;55014.75;;;-146.72;63.73
40994;BME280;26722;43.212;27.932;2023-05-23T02:38:45;55010.53;;;-146.72;63.58
40994;BME280;26722;43.212;27.932;2023-05-23T02:41:11;54999.97;;;-146.72;63.70
40994;BME280;26722;43.212;27.932;2023-05-23T02:43:36;55010.53;;;-146.72;63.92
40994;BME280;26722;43.212;27.932;2023-05-23T02:46:02;55006.31;;;-146.72;64.13
40994;BME280;26722;43.212;27.932;2023-05-23T02:48:27;55006.31;;;-146.72;64.25
40994;BME280;26722;43.212;27.932;2023-05-23T02:50:52;55025.31;;;-146.72;64.18
40994;BME280;26722;43.212;27.932;2023-05-23T02:53:18;55002.09;;;-146.72;64.39
40994;BME280;26722;43.212;27.932;2023-05-23T02:55:43;55010.53;;;-146.72;64.18
40994;BME280;26722;43.212;27.932;2023-05-23T02:58:08;54993.63;;;-146.72;63.95
40994;BME280;26722;43.212;27.932;2023-05-23T03:00:36;54997.88;;;-146.72;63.80
40994;BME280;26722;43.212;27.932;2023-05-23T03:03:01;54999.97;;;-146.72;63.67
40994;BME280;26722;43.212;27.932;2023-05-23T03:05:26;55010.53;;;-146.72;63.84
40994;BME280;26722;43.212;27.932;2023-05-23T03:07:52;55018.97;;;-146.72;63.75
40994;BME280;26722;43.212;27.932;2023-05-23T03:10:18;55006.31;;;-146.72;63.69
40994;BME280;26722;43.212;27.932;2023-05-23T03:12:44;55010.53;;;-146.72;63.78
40994;BME280;26722;43.212;27.932;2023-05-23T03:15:10;55010.53;;;-146.72;63.79
40994;BME280;26722;43.212;27.932;2023-05-23T03:17:35;55016.88;;;-146.72;63.84
40994;BME280;26722;43.212;27.932;2023-05-23T03:20:00;55014.75;;;-146.72;63.47
40994;BME280;26722;43.212;27.932;2023-05-23T03:22:26;55006.31;;;-146.72;63.39
40994;BME280;26722;43.212;27.932;2023-05-23T03:24:51;55018.97;;;-146.72;63.31
40994;BME280;26722;43.212;27.932;2023-05-23T03:27:16;55023.19;;;-146.72;63.20
40994;BME280;26722;43.212;27.932;2023-05-23T03:29:42;54991.53;;;-146.72;63.01
40994;BME280;26722;43.212;27.932;2023-05-23T03:32:07;55010.53;;;-146.72;62.66
40994;BME280;26722;43.212;27.932;2023-05-23T03:34:32;54995.75;;;-146.72;62.22
40994;BME280;26722;43.212;27.932;2023-05-23T03:36:58;54993.63;;;-146.72;62.24
40994;BME280;26722;43.212;27.932;2023-05-23T03:39:23;54997.88;;;-146.72;62.39
40994;BME280;26722;43.212;27.932;2023-05-23T03:41:49;54980.97;;;-146.72;62.26
40994;BME280;26722;43.212;27.932;2023-05-23T03:44:14;54995.75;;;-146.72;62.28
40994;BME280;26722;43.212;27.932;2023-05-23T03:46:39;54995.75;;;-146.72;62.19
40994;BME280;26722;43.212;27.932;2023-05-23T03:49:05;55004.19;;;-146.72;62.18
40994;BME280;26722;43.212;27.932;2023-05-23T03:51:30;55018.97;;;-146.72;62.29
40994;BME280;26722;43.212;27.932;2023-05-23T03:53:55;55010.53;;;-146.72;62.24
40994;BME280;26722;43.212;27.932;2023-05-23T03:56:21;55012.63;;;-146.72;61.91
40994;BME280;26722;43.212;27.932;2023-05-23T03:58:47;54993.63;;;-146.72;61.86
40994;BME280;26722;43.212;27.932;2023-05-23T04:01:12;54989.41;;;-146.72;62.05
40994;BME280;26722;43.212;27.932;2023-05-23T04:03:38;54989.41;;;-146.72;61.81
40994;BME280;26722;43.212;27.932;2023-05-23T04:06:03;55004.19;;;-146.72;61.94
40994;BME280;26722;43.212;27.932;2023-05-23T04:08:28;54980.97;;;-146.72;61.66
40994;BME280;26722;43.212;27.932;2023-05-23T04:10:58;55002.09;;;-146.72;61.95
40994;BME280;26722;43.212;27.932;2023-05-23T04:13:23;54997.88;;;-146.72;61.81
40994;BME280;26722;43.212;27.932;2023-05-23T04:15:50;54993.63;;;-146.72;61.71
40994;BME280;26722;43.212;27.932;2023-05-23T04:18:16;54997.88;;;-146.72;61.30
40994;BME280;26722;43.212;27.932;2023-05-23T04:20:42;54985.19;;;-146.72;61.09
40994;BME280;26722;43.212;27.932;2023-05-23T04:23:07;54997.88;;;-146.72;61.08
40994;BME280;26722;43.212;27.932;2023-05-23T04:25:32;55010.53;;;-146.72;61.08
40994;BME280;26722;43.212;27.932;2023-05-23T04:27:58;54989.41;;;-146.72;60.93
40994;BME280;26722;43.212;27.932;2023-05-23T04:30:23;54999.97;;;-146.72;60.91
40994;BME280;26722;43.212;27.932;2023-05-23T04:32:49;54980.97;;;-146.72;60.91
40994;BME280;26722;43.212;27.932;2023-05-23T04:35:14;54999.97;;;-146.72;61.19
40994;BME280;26722;43.212;27.932;2023-05-23T04:37:39;54989.41;;;-146.72;61.08
40994;BME280;26722;43.212;27.932;2023-05-23T04:40:06;54993.63;;;-146.72;61.20
40994;BME280;26722;43.212;27.932;2023-05-23T04:42:32;54993.63;;;-146.72;61.58
40994;BME280;26722;43.212;27.932;2023-05-23T04:44:57;54987.31;;;-146.72;61.56
40994;BME280;26722;43.212;27.932;2023-05-23T04:47:23;54997.88;;;-146.72;61.52
40994;BME280;26722;43.212;27.932;2023-05-23T04:49:52;54993.63;;;-146.72;61.50
40994;BME280;26722;43.212;27.932;2023-05-23T04:52:18;54987.31;;;-146.72;60.95
40994;BME280;26722;43.212;27.932;2023-05-23T04:54:43;54976.75;;;-146.72;60.65
40994;BME280;26722;43.212;27.932;2023-05-23T04:57:10;54980.97;;;-146.72;60.42
40994;BME280;26722;43.212;27.932;2023-05-23T04:59:36;54980.97;;;-146.72;60.03
40994;BME280;26722;43.212;27.932;2023-05-23T05:02:02;54999.97;;;-146.72;59.84
40994;BME280;26722;43.212;27.932;2023-05-23T05:04:27;54993.63;;;-146.72;60.01
40994;BME280;26722;43.212;27.932;2023-05-23T05:06:53;54995.75;;;-146.72;59.85
40994;BME280;26722;43.212;27.932;2023-05-23T05:09:18;54985.19;;;-146.72;59.53
40994;BME280;26722;43.212;27.932;2023-05-23T05:11:43;54991.53;;;-146.72;59.53
40994;BME280;26722;43.212;27.932;2023-05-23T05:14:09;54985.19;;;-146.72;59.66
40994;BME280;26722;43.212;27.932;2023-05-23T05:16:34;54983.09;;;-146.72;59.79
40994;BME280;26722;43.212;27.932;2023-05-23T05:19:00;54974.63;;;-146.72;59.34
40994;BME280;26722;43.212;27.932;2023-05-23T05:21:25;54980.97;;;-146.72;58.86
40994;BME280;26722;43.212;27.932;2023-05-23T05:23:51;54968.31;;;-146.72;58.57
40994;BME280;26722;43.212;27.932;2023-05-23T05:26:16;54983.09;;;-146.72;58.25
40994;BME280;26722;43.212;27.932;2023-05-23T05:28:42;54976.75;;;-146.72;57.86
40994;BME280;26722;43.212;27.932;2023-05-23T05:31:07;54972.53;;;-146.72;57.72
40994;BME280;26722;43.212;27.932;2023-05-23T05:33:32;54968.31;;;-146.72;57.71
40994;BME280;26722;43.212;27.932;2023-05-23T05:36:03;54970.41;;;-146.72;57.22
40994;BME280;26722;43.212;27.932;2023-05-23T05:38:28;54970.41;;;-146.72;56.96
40994;BME280;26722;43.212;27.932;2023-05-23T05:40:53;54978.88;;;-146.72;56.79
40994;BME280;26722;43.212;27.932;2023-05-23T05:43:19;54968.31;;;-146.72;56.75
40994;BME280;26722;43.212;27.932;2023-05-23T05:45:44;54955.63;;;-146.72;56.39
40994;BME280;26722;43.212;27.932;2023-05-23T05:48:09;54964.09;;;-146.72;56.10
40994;BME280;26722;43.212;27.932;2023-05-23T05:50:37;54951.41;;;-146.72;55.69
40994;BME280;26722;43.212;27.932;2023-05-23T05:53:02;54957.75;;;-146.72;55.55
40994;BME280;26722;43.212;27.932;2023-05-23T05:55:27;54955.63;;;-146.72;55.29
40994;BME280;26722;43.212;27.932;2023-05-23T05:57:53;54947.19;;;-146.72;54.71
40994;BME280;26722;43.212;27.932;2023-05-23T06:00:18;54936.63;;;-146.72;54.22
40994;BME280;26722;43.212;27.932;2023-05-23T06:02:44;54951.41;;;-146.72;54.43
40994;BME280;26722;43.212;27.932;2023-05-23T06:05:15;54938.75;;;-146.72;54.24
40994;BME280;26722;43.212;27.932;2023-05-23T06:07:41;54942.97;;;-146.72;54.42
40994;BME280;26722;43.212;27.932;2023-05-23T06:10:07;54947.19;;;-146.72;54.84
40994;BME280;26722;43.212;27.932;2023-05-23T06:12:33;54947.19;;;-146.72;55.03
40994;BME280;26722;43.212;27.932;2023-05-23T06:14:58;54947.19;;;-146.72;55.16
40994;BME280;26722;43.212;27.932;2023-05-23T06:17:24;54951.41;;;-146.72;55.01
40994;BME280;26722;43.212;27.932;2023-05-23T06:19:49;54959.88;;;-146.72;55.27
40994;BME280;26722;43.212;27.932;2023-05-23T06:22:15;54947.19;;;-146.72;54.15
40994;BME280;26722;43.212;27.932;2023-05-23T06:24:40;54940.88;;;-146.72;53.89
40994;BME280;26722;43.212;27.932;2023-05-23T06:27:05;54951.41;;;-146.72;54.48
40994;BME280;26722;43.212;27.932;2023-05-23T06:29:31;54938.75;;;-146.72;53.69
40994;BME280;26722;43.212;27.932;2023-05-23T06:31:56;54938.75;;;-146.72;53.46
40994;BME280;26722;43.212;27.932;2023-05-23T06:34:21;54942.97;;;-146.72;53.50
40994;BME280;26722;43.212;27.932;2023-05-23T06:36:47;54940.88;;;-146.72;53.64
40994;BME280;26722;43.212;27.932;2023-05-23T06:39:12;54949.31;;;-146.72;53.34
40994;BME280;26722;43.212;27.932;2023-05-23T06:41:38;54947.19;;;-146.72;53.64
40994;BME280;26722;43.212;27.932;2023-05-23T06:44:03;54938.75;;;-146.72;53.97
40994;BME280;26722;43.212;27.932;2023-05-23T06:46:29;54942.97;;;-146.72;54.02
40994;BME280;26722;43.212;27.932;2023-05-23T06:48:54;54947.19;;;-146.72;54.50
40994;BME280;26722;43.212;27.932;2023-05-23T06:51:19;54953.53;;;-146.72;54.77
40994;BME280;26722;43.212;27.932;2023-05-23T06:53:45;54949.31;;;-146.72;54.88
40994;BME280;26722;43.212;27.932;2023-05-23T06:56:10;54942.97;;;-146.72;54.71
40994;BME280;26722;43.212;27.932;2023-05-23T06:58:35;54951.41;;;-146.72;54.42
40994;BME280;26722;43.212;27.932;2023-05-23T07:01:01;54936.63;;;-146.72;54.50
40994;BME280;26722;43.212;27.932;2023-05-23T07:03:26;54947.19;;;-146.72;54.56
40994;BME280;26722;43.212;27.932;2023-05-23T07:05:51;54932.41;;;-146.72;54.57
40994;BME280;26722;43.212;27.932;2023-05-23T07:08:17;54923.97;;;-146.72;54.14
40994;BME280;26722;43.212;27.932;2023-05-23T07:10:42;54928.19;;;-146.72;53.56
40994;BME280;26722;43.212;27.932;2023-05-23T07:13:07;54945.09;;;-146.72;53.26
40994;BME280;26722;43.212;27.932;2023-05-23T07:15:33;54926.09;;;-146.72;53.53
40994;BME280;26722;43.212;27.932;2023-05-23T07:17:58;54930.31;;;-146.72;53.44
40994;BME280;26722;43.212;27.932;2023-05-23T07:20:23;54940.88;;;-146.72;53.72
40994;BME280;26722;43.212;27.932;2023-05-23T07:22:49;54938.75;;;-146.72;54.09
40994;BME280;26722;43.212;27.932;2023-05-23T07:25:15;54945.09;;;-146.72;55.32
40994;BME280;26722;43.212;27.932;2023-05-23T07:27:41;54951.41;;;-146.72;56.30
40994;BME280;26722;43.212;27.932;2023-05-23T07:30:06;54945.09;;;-146.72;56.13
40994;BME280;26722;43.212;27.932;2023-05-23T07:32:33;54928.19;;;-146.72;56.21
40994;BME280;26722;43.212;27.932;2023-05-23T07:34:59;54930.31;;;-146.72;56.49
40994;BME280;26722;43.212;27.932;2023-05-23T07:37:24;54945.09;;;-146.72;57.14
40994;BME280;26722;43.212;27.932;2023-05-23T07:39:51;54932.41;;;-146.72;56.42
40994;BME280;26722;43.212;27.932;2023-05-23T07:42:16;54940.88;;;-146.72;56.10
40994;BME280;26722;43.212;27.932;2023-05-23T07:44:42;54930.31;;;-146.72;56.21
40994;BME280;26722;43.212;27.932;2023-05-23T07:47:07;54926.09;;;-146.72;54.99
40994;BME280;26722;43.212;27.932;2023-05-23T07:49:32;54926.09;;;-146.72;55.77
40994;BME280;26722;43.212;27.932;2023-05-23T07:51:58;54936.63;;;-146.72;55.71
40994;BME280;26722;43.212;27.932;2023-05-23T07:54:23;54930.31;;;-146.72;55.62
40994;BME280;26722;43.212;27.932;2023-05-23T07:56:48;54915.53;;;-146.72;55.69
40994;BME280;26722;43.212;27.932;2023-05-23T07:59:14;54919.75;;;-146.72;53.92
40994;BME280;26722;43.212;27.932;2023-05-23T08:01:39;54921.88;;;-146.72;53.59
40994;BME280;26722;43.212;27.932;2023-05-23T08:04:06;54904.97;;;-146.72;53.55
40994;BME280;26722;43.212;27.932;2023-05-23T08:06:31;54904.97;;;-146.72;53.70
40994;BME280;26722;43.212;27.932;2023-05-23T08:08:57;54913.41;;;-146.72;52.68
40994;BME280;26722;43.212;27.932;2023-05-23T08:11:22;54915.53;;;-146.72;51.42
40994;BME280;26722;43.212;27.932;2023-05-23T08:13:48;54892.31;;;-146.72;51.47
40994;BME280;26722;43.212;27.932;2023-05-23T08:16:13;54900.75;;;-146.72;52.73
40994;BME280;26722;43.212;27.932;2023-05-23T08:18:38;54900.75;;;-146.72;53.32
40994;BME280;26722;43.212;27.932;2023-05-23T08:21:04;54907.09;;;-146.72;53.34
40994;BME280;26722;43.212;27.932;2023-05-23T08:23:29;54900.75;;;-146.72;53.28
40994;BME280;26722;43.212;27.932;2023-05-23T08:25:54;54913.41;;;-146.72;53.01
40994;BME280;26722;43.212;27.932;2023-05-23T08:28:21;54909.19;;;-146.72;52.28
40994;BME280;26722;43.212;27.932;2023-05-23T08:30:46;54919.75;;;-146.72;52.03
40994;BME280;26722;43.212;27.932;2023-05-23T08:33:14;54902.84;;;-146.72;50.76
40994;BME280;26722;43.212;27.932;2023-05-23T08:35:40;54900.75;;;-146.72;53.51
40994;BME280;26722;43.212;27.932;2023-05-23T08:38:05;54921.88;;;-146.72;55.03
40994;BME280;26722;43.212;27.932;2023-05-23T08:40:34;54917.63;;;-146.72;52.33
40994;BME280;26722;43.212;27.932;2023-05-23T08:43:00;54921.88;;;-146.72;51.98
40994;BME280;26722;43.212;27.932;2023-05-23T08:45:26;54909.19;;;-146.72;51.03
40994;BME280;26722;43.212;27.932;2023-05-23T08:47:53;54913.41;;;-146.72;50.97
40994;BME280;26722;43.212;27.932;2023-05-23T08:50:19;54909.19;;;-146.72;51.05
40994;BME280;26722;43.212;27.932;2023-05-23T08:53:06;54911.31;;;-146.72;51.71
40994;BME280;26722;43.212;27.932;2023-05-23T08:55:34;54898.63;;;-146.72;51.39
40994;BME280;26722;43.212;27.932;2023-05-23T08:58:00;54900.75;;;-146.72;50.93
40994;BME280;26722;43.212;27.932;2023-05-23T09:00:25;54909.19;;;-146.72;54.58
40994;BME280;26722;43.212;27.932;2023-05-23T09:02:51;54909.19;;;-146.72;56.21
40994;BME280;26722;43.212;27.932;2023-05-23T09:05:17;54883.84;;;-146.72;56.95
40994;BME280;26722;43.212;27.932;2023-05-23T09:07:44;54885.97;;;-146.72;56.92
40994;BME280;26722;43.212;27.932;2023-05-23T09:10:12;54902.84;;;-146.72;56.63
40994;BME280;26722;43.212;27.932;2023-05-23T09:12:38;54919.75;;;-146.72;56.77
40994;BME280;26722;43.212;27.932;2023-05-23T09:15:04;54866.97;;;-146.72;55.72
40994;BME280;26722;43.212;27.932;2023-05-23T09:17:30;54879.63;;;-146.72;54.89
40994;BME280;26722;43.212;27.932;2023-05-23T09:19:56;54885.97;;;-146.72;54.84
40994;BME280;26722;43.212;27.932;2023-05-23T09:22:24;54883.84;;;-146.72;54.43
40994;BME280;26722;43.212;27.932;2023-05-23T09:24:51;54866.97;;;-146.72;54.39
40994;BME280;26722;43.212;27.932;2023-05-23T09:27:17;54892.31;;;-146.72;53.91
40994;BME280;26722;43.212;27.932;2023-05-23T09:29:42;54890.19;;;-146.72;53.83
40994;BME280;26722;43.212;27.932;2023-05-23T09:32:11;54877.53;;;-146.72;53.83
40994;BME280;26722;43.212;27.932;2023-05-23T09:37:15;54860.63;;;-146.72;53.26
40994;BME280;26722;43.212;27.932;2023-05-23T09:39:46;54875.41;;;-146.72;53.16
40994;BME280;26722;43.212;27.932;2023-05-23T09:42:17;54898.63;;;-146.72;53.74
40994;BME280;26722;43.212;27.932;2023-05-23T09:44:42;54892.31;;;-146.72;54.13
40994;BME280;26722;43.212;27.932;2023-05-23T09:47:07;54909.19;;;-146.72;55.45
40994;BME280;26722;43.212;27.932;2023-05-23T09:49:33;54904.97;;;-146.72;56.51
40994;BME280;26722;43.212;27.932;2023-05-23T09:51:58;54913.41;;;-146.72;57.05
40994;BME280;26722;43.212;27.932;2023-05-23T09:54:24;54902.84;;;-146.72;57.36
40994;BME280;26722;43.212;27.932;2023-05-23T09:56:49;54928.19;;;-146.72;58.63
40994;BME280;26722;43.212;27.932;2023-05-23T09:59:16;54934.53;;;-146.72;60.06
40994;BME280;26722;43.212;27.932;2023-05-23T10:01:48;54951.41;;;-146.72;60.16
40994;BME280;26722;43.212;27.932;2023-05-23T10:04:15;54928.19;;;-146.72;61.16
40994;BME280;26722;43.212;27.932;2023-05-23T10:06:44;54949.31;;;-146.72;61.67
40994;BME280;26722;43.212;27.932;2023-05-23T10:09:15;54942.97;;;-146.72;62.36
40994;BME280;26722;43.212;27.932;2023-05-23T10:14:28;54955.63;;;-146.72;62.73
40994;BME280;26722;43.212;27.932;2023-05-23T10:16:56;54959.88;;;-146.72;63.02
40994;BME280;26722;43.212;27.932;2023-05-23T10:19:26;54947.19;;;-146.72;63.21
40994;BME280;26722;43.212;27.932;2023-05-23T10:21:58;54955.63;;;-146.72;63.17
40994;BME280;26722;43.212;27.932;2023-05-23T10:24:24;54957.75;;;-146.72;63.31
40994;BME280;26722;43.212;27.932;2023-05-23T10:26:51;54955.63;;;-146.72;64.55
40994;BME280;26722;43.212;27.932;2023-05-23T10:29:17;54972.53;;;-146.72;65.38
40994;BME280;26722;43.212;27.932;2023-05-23T10:31:43;54978.88;;;-146.72;65.96
40994;BME280;26722;43.212;27.932;2023-05-23T10:37:04;54978.88;;;-146.72;65.88
40994;BME280;26722;43.212;27.932;2023-05-23T10:39:45;54959.88;;;-146.72;66.27
40994;BME280;26722;43.212;27.932;2023-05-23T10:42:15;54989.41;;;-146.72;66.89
40994;BME280;26722;43.212;27.932;2023-05-23T10:44:41;54985.19;;;-146.72;69.05
40994;BME280;26722;43.212;27.932;2023-05-23T10:47:06;54968.31;;;-146.72;70.48
40994;BME280;26722;43.212;27.932;2023-05-23T10:49:45;54976.75;;;-146.72;71.86
40994;BME280;26722;43.212;27.932;2023-05-23T10:52:11;54993.63;;;-146.72;73.06
40994;BME280;26722;43.212;27.932;2023-05-23T10:57:05;54991.53;;;-146.72;74.49
40994;BME280;26722;43.212;27.932;2023-05-23T10:59:31;54976.75;;;-146.72;74.28
40994;BME280;26722;43.212;27.932;2023-05-23T11:01:58;54980.97;;;-146.72;74.21
40994;BME280;26722;43.212;27.932;2023-05-23T11:04:24;54966.19;;;-146.72;73.37
40994;BME280;26722;43.212;27.932;2023-05-23T11:06:51;54961.97;;;-146.72;71.89
40994;BME280;26722;43.212;27.932;2023-05-23T11:09:17;54961.97;;;-146.72;70.73
40994;BME280;26722;43.212;27.932;2023-05-23T11:16:56;54938.75;;;-146.72;63.93
40994;BME280;26722;43.212;27.932;2023-05-23T11:19:22;54942.97;;;-146.72;63.36
40994;BME280;26722;43.212;27.932;2023-05-23T11:24:15;54915.53;;;-146.72;60.98
40994;BME280;26722;43.212;27.932;2023-05-23T11:26:50;54904.97;;;-146.72;59.83
40994;BME280;26722;43.212;27.932;2023-05-23T11:29:16;54892.31;;;-146.72;59.34
40994;BME280;26722;43.212;27.932;2023-05-23T11:31:41;54917.63;;;-146.72;57.84
40994;BME280;26722;43.212;27.932;2023-05-23T11:34:06;54900.75;;;-146.72;58.53
40994;BME280;26722;43.212;27.932;2023-05-23T11:36:32;54921.88;;;-146.72;59.57
40994;BME280;26722;43.212;27.932;2023-05-23T11:39:00;54921.88;;;-146.72;59.90
40994;BME280;26722;43.212;27.932;2023-05-23T11:41:27;54902.84;;;-146.72;59.35
40994;BME280;26722;43.212;27.932;2023-05-23T11:43:52;54896.53;;;-146.72;58.46
40994;BME280;26722;43.212;27.932;2023-05-23T11:46:18;54888.09;;;-146.72;57.20
40994;BME280;26722;43.212;27.932;2023-05-23T11:48:46;54900.75;;;-146.72;56.67
40994;BME280;26722;43.212;27.932;2023-05-23T11:51:12;54892.31;;;-146.72;55.59
40994;BME280;26722;43.212;27.932;2023-05-23T11:53:37;54907.09;;;-146.72;55.17
40994;BME280;26722;43.212;27.932;2023-05-23T11:56:03;54883.84;;;-146.72;54.00
40994;BME280;26722;43.212;27.932;2023-05-23T11:58:37;54888.09;;;-146.72;54.25
40994;BME280;26722;43.212;27.932;2023-05-23T12:01:04;54898.63;;;-146.72;54.14
40994;BME280;26722;43.212;27.932;2023-05-23T12:03:30;54883.84;;;-146.72;54.15
40994;BME280;26722;43.212;27.932;2023-05-23T12:05:59;54888.09;;;-146.72;53.77
40994;BME280;26722;43.212;27.932;2023-05-23T12:08:25;54883.84;;;-146.72;54.28
40994;BME280;26722;43.212;27.932;2023-05-23T12:10:51;54894.41;;;-146.72;54.98
40994;BME280;26722;43.212;27.932;2023-05-23T12:13:17;54892.31;;;-146.72;55.32
40994;BME280;26722;43.212;27.932;2023-05-23T12:15:43;54896.53;;;-146.72;56.26
40994;BME280;26722;43.212;27.932;2023-05-23T12:18:08;54904.97;;;-146.72;56.92
40994;BME280;26722;43.212;27.932;2023-05-23T12:20:33;54892.31;;;-146.72;56.66
40994;BME280;26722;43.212;27.932;2023-05-23T12:23:03;54894.41;;;-146.72;56.16
40994;BME280;26722;43.212;27.932;2023-05-23T12:25:28;54913.41;;;-146.72;55.97
40994;BME280;26722;43.212;27.932;2023-05-23T12:27:55;54896.53;;;-146.72;55.77
40994;BME280;26722;43.212;27.932;2023-05-23T12:30:20;54898.63;;;-146.72;55.41
40994;BME280;26722;43.212;27.932;2023-05-23T12:32:46;54900.75;;;-146.72;55.19
40994;BME280;26722;43.212;27.932;2023-05-23T12:35:12;54896.53;;;-146.72;55.03
40994;BME280;26722;43.212;27.932;2023-05-23T12:37:38;54900.75;;;-146.72;54.76
40994;BME280;26722;43.212;27.932;2023-05-23T12:40:16;54883.84;;;-146.72;54.10
40994;BME280;26722;43.212;27.932;2023-05-23T12:45:12;54881.75;;;-146.72;53.12
40994;BME280;26722;43.212;27.932;2023-05-23T12:47:37;54883.84;;;-146.72;52.03
40994;BME280;26722;43.212;27.932;2023-05-23T12:50:03;54879.63;;;-146.72;53.01
40994;BME280;26722;43.212;27.932;2023-05-23T12:52:28;54888.09;;;-146.72;53.74
40994;BME280;26722;43.212;27.932;2023-05-23T12:54:53;54881.75;;;-146.72;52.75
40994;BME280;26722;43.212;27.932;2023-05-23T12:57:19;54885.97;;;-146.72;53.65